sensor_id;sensor_type;location;lat;lon;timestamp;temperature;humidity
5802;DHT22;2927;49.366;8.530;2022-12-07T00:01:04;3.90;99.90
5802;DHT22;2927;49.366;8.530;2022-12-07T00:03:30;3.90;99.90
5802;DHT22;2927;49.366;8.530;2022-12-07T00:05:58;3.90;99.90
5802;DHT22;2927;49.366;8.530;2022-12-07T00:08:23;3.90;99.90
5802;DHT22;2927;49.366;8.530;2022-12-07T00:10:49;3.90;99.90
5802;DHT22;2927;49.366;8.530;2022-12-07T00:13:15;3.90;99.90
5802;DHT22;2927;49.366;8.530;2022-12-07T00:15:40;3.90;99.90
5802;DHT22;2927;49.366;8.530;2022-12-07T00:18:06;4.00;99.90
5802;DHT22;2927;49.366;8.530;2022-12-07T00:20:31;4.00;99.90
5802;DHT22;2927;49.366;8.530;2022-12-07T00:22:57;4.00;99.90
5802;DHT22;2927;49.366;8.530;2022-12-07T00:25:22;4.00;99.90
5802;DHT22;2927;49.366;8.530;2022-12-07T00:27:48;4.00;99.90
5802;DHT22;2927;49.366;8.530;2022-12-07T00:30:13;4.00;99.90
5802;DHT22;2927;49.366;8.530;2022-12-07T00:32:39;4.00;99.90
5802;DHT22;2927;49.366;8.530;2022-12-07T00:35:05;3.90;99.90
5802;DHT22;2927;49.366;8.530;2022-12-07T00:37:30;3.90;99.90
5802;DHT22;2927;49.366;8.530;2022-12-07T00:39:56;3.80;99.90
5802;DHT22;2927;49.366;8.530;2022-12-07T00:42:21;3.80;99.90
5802;DHT22;2927;49.366;8.530;2022-12-07T00:44:47;3.80;99.90
5802;DHT22;2927;49.366;8.530;2022-12-07T00:47:12;3.80;99.90
5802;DHT22;2927;49.366;8.530;2022-12-07T00:49:38;3.90;99.90
5802;DHT22;2927;49.366;8.530;2022-12-07T00:52:03;3.80;99.90
5802;DHT22;2927;49.366;8.530;2022-12-07T00:54:29;3.80;99.90
5802;DHT22;2927;49.366;8.530;2022-12-07T00:56:54;3.80;99.90
5802;DHT22;2927;49.366;8.530;2022-12-07T00:59:20;3.90;99.90
5802;DHT22;2927;49.366;8.530;2022-12-07T01:01:45;4.00;99.90
5802;DHT22;2927;49.366;8.530;2022-12-07T01:04:11;4.00;99.90
5802;DHT22;2927;49.366;8.530;2022-12-07T01:06:36;4.00;99.90
5802;DHT22;2927;49.366;8.530;2022-12-07T01:09:03;4.00;99.90
5802;DHT22;2927;49.366;8.530;2022-12-07T01:11:30;4.00;99.90
5802;DHT22;2927;49.366;8.530;2022-12-07T01:13:58;4.00;99.90
5802;DHT22;2927;49.366;8.530;2022-12-07T01:16:25;4.10;99.90
5802;DHT22;2927;49.366;8.530;2022-12-07T01:18:52;4.10;99.90
5802;DHT22;2927;49.366;8.530;2022-12-07T01:21:24;4.10;99.90
5802;DHT22;2927;49.366;8.530;2022-12-07T01:23:50;4.10;99.90
5802;DHT22;2927;49.366;8.530;2022-12-07T01:26:19;4.10;99.90
5802;DHT22;2927;49.366;8.530;2022-12-07T01:28:45;4.10;99.90
5802;DHT22;2927;49.366;8.530;2022-12-07T01:31:13;4.10;99.90
5802;DHT22;2927;49.366;8.530;2022-12-07T01:33:54;4.10;99.90
5802;DHT22;2927;49.366;8.530;2022-12-07T01:36:24;4.10;99.90
5802;DHT22;2927;49.366;8.530;2022-12-07T01:38:53;4.10;99.90
5802;DHT22;2927;49.366;8.530;2022-12-07T01:41:21;4.10;99.90
5802;DHT22;2927;49.366;8.530;2022-12-07T01:44:25;4.10;99.90
5802;DHT22;2927;49.366;8.530;2022-12-07T01:49:38;4.00;99.90
5802;DHT22;2927;49.366;8.530;2022-12-07T01:52:18;3.90;99.90
5802;DHT22;2927;49.366;8.530;2022-12-07T01:54:46;4.00;99.90
5802;DHT22;2927;49.366;8.530;2022-12-07T01:57:14;3.90;99.90
5802;DHT22;2927;49.366;8.530;2022-12-07T01:59:42;3.90;99.90
5802;DHT22;2927;49.366;8.530;2022-12-07T02:02:16;3.80;99.90
5802;DHT22;2927;49.366;8.530;2022-12-07T02:04:43;3.80;99.90
5802;DHT22;2927;49.366;8.530;2022-12-07T02:07:09;3.80;99.90
5802;DHT22;2927;49.366;8.530;2022-12-07T02:09:34;3.80;99.90
5802;DHT22;2927;49.366;8.530;2022-12-07T02:12:00;3.80;99.90
5802;DHT22;2927;49.366;8.530;2022-12-07T02:14:25;3.70;99.90
5802;DHT22;2927;49.366;8.530;2022-12-07T02:22:46;3.80;99.90
5802;DHT22;2927;49.366;8.530;2022-12-07T02:25:33;3.80;99.90
5802;DHT22;2927;49.366;8.530;2022-12-07T02:28:46;3.80;99.90
5802;DHT22;2927;49.366;8.530;2022-12-07T02:31:17;3.80;99.90
5802;DHT22;2927;49.366;8.530;2022-12-07T02:33:52;3.80;99.90
5802;DHT22;2927;49.366;8.530;2022-12-07T02:36:21;3.80;99.90
5802;DHT22;2927;49.366;8.530;2022-12-07T02:38:55;3.80;99.90
5802;DHT22;2927;49.366;8.530;2022-12-07T02:41:31;3.80;99.90
5802;DHT22;2927;49.366;8.530;2022-12-07T02:44:02;3.80;99.90
5802;DHT22;2927;49.366;8.530;2022-12-07T02:46:31;3.80;99.90
5802;DHT22;2927;49.366;8.530;2022-12-07T02:48:58;3.80;99.90
5802;DHT22;2927;49.366;8.530;2022-12-07T02:51:25;3.70;99.90
5802;DHT22;2927;49.366;8.530;2022-12-07T02:53:50;3.60;99.90
5802;DHT22;2927;49.366;8.530;2022-12-07T02:56:45;3.60;99.90
5802;DHT22;2927;49.366;8.530;2022-12-07T03:07:42;3.40;99.90
5802;DHT22;2927;49.366;8.530;2022-12-07T03:10:39;3.40;99.90
5802;DHT22;2927;49.366;8.530;2022-12-07T03:15:46;3.50;99.90
5802;DHT22;2927;49.366;8.530;2022-12-07T03:18:17;3.60;99.90
5802;DHT22;2927;49.366;8.530;2022-12-07T03:20:46;3.60;99.90
5802;DHT22;2927;49.366;8.530;2022-12-07T03:23:16;3.70;99.90
5802;DHT22;2927;49.366;8.530;2022-12-07T03:25:47;3.70;99.90
5802;DHT22;2927;49.366;8.530;2022-12-07T03:28:16;3.80;99.90
5802;DHT22;2927;49.366;8.530;2022-12-07T03:31:01;3.80;99.90
5802;DHT22;2927;49.366;8.530;2022-12-07T03:33:42;3.80;99.90
5802;DHT22;2927;49.366;8.530;2022-12-07T03:39:11;3.70;99.90
5802;DHT22;2927;49.366;8.530;2022-12-07T03:41:34;3.70;99.90
5802;DHT22;2927;49.366;8.530;2022-12-07T03:44:00;3.60;99.90
5802;DHT22;2927;49.366;8.530;2022-12-07T03:46:44;3.70;99.90
5802;DHT22;2927;49.366;8.530;2022-12-07T03:49:52;3.70;99.90
5802;DHT22;2927;49.366;8.530;2022-12-07T03:52:31;3.70;99.90
5802;DHT22;2927;49.366;8.530;2022-12-07T03:55:16;3.70;99.90
5802;DHT22;2927;49.366;8.530;2022-12-07T03:57:44;3.70;99.90
5802;DHT22;2927;49.366;8.530;2022-12-07T04:00:13;3.70;99.90
5802;DHT22;2927;49.366;8.530;2022-12-07T04:02:39;3.70;99.90
5802;DHT22;2927;49.366;8.530;2022-12-07T04:05:05;3.70;99.90
5802;DHT22;2927;49.366;8.530;2022-12-07T04:07:31;3.70;99.90
5802;DHT22;2927;49.366;8.530;2022-12-07T04:09:57;3.80;99.90
5802;DHT22;2927;49.366;8.530;2022-12-07T04:12:23;3.80;99.90
5802;DHT22;2927;49.366;8.530;2022-12-07T04:14:48;3.80;99.90
5802;DHT22;2927;49.366;8.530;2022-12-07T04:17:14;3.80;99.90
5802;DHT22;2927;49.366;8.530;2022-12-07T04:19:40;3.70;99.90
5802;DHT22;2927;49.366;8.530;2022-12-07T04:22:05;3.70;99.90
5802;DHT22;2927;49.366;8.530;2022-12-07T04:24:32;3.70;99.90
5802;DHT22;2927;49.366;8.530;2022-12-07T04:26:58;3.70;99.90
5802;DHT22;2927;49.366;8.530;2022-12-07T04:29:24;3.60;99.90
5802;DHT22;2927;49.366;8.530;2022-12-07T04:31:49;3.60;99.90
5802;DHT22;2927;49.366;8.530;2022-12-07T04:34:16;3.70;99.90
5802;DHT22;2927;49.366;8.530;2022-12-07T04:36:42;3.70;99.90
5802;DHT22;2927;49.366;8.530;2022-12-07T04:39:18;3.70;99.90
5802;DHT22;2927;49.366;8.530;2022-12-07T04:41:44;3.70;99.90
5802;DHT22;2927;49.366;8.530;2022-12-07T04:44:09;3.80;99.90
5802;DHT22;2927;49.366;8.530;2022-12-07T04:46:36;3.80;99.90
5802;DHT22;2927;49.366;8.530;2022-12-07T04:49:01;3.90;99.90
5802;DHT22;2927;49.366;8.530;2022-12-07T04:51:28;3.90;99.90
5802;DHT22;2927;49.366;8.530;2022-12-07T04:53:55;3.90;99.90
5802;DHT22;2927;49.366;8.530;2022-12-07T04:56:21;3.90;99.90
5802;DHT22;2927;49.366;8.530;2022-12-07T04:58:48;3.90;99.90
5802;DHT22;2927;49.366;8.530;2022-12-07T05:01:15;4.00;99.90
5802;DHT22;2927;49.366;8.530;2022-12-07T05:03:41;4.10;99.90
5802;DHT22;2927;49.366;8.530;2022-12-07T05:06:07;4.10;99.90
5802;DHT22;2927;49.366;8.530;2022-12-07T05:08:34;4.10;99.90
5802;DHT22;2927;49.366;8.530;2022-12-07T05:11:00;4.00;99.90
5802;DHT22;2927;49.366;8.530;2022-12-07T05:13:26;4.00;99.90
5802;DHT22;2927;49.366;8.530;2022-12-07T05:15:51;4.00;99.90
5802;DHT22;2927;49.366;8.530;2022-12-07T05:18:17;3.90;99.90
5802;DHT22;2927;49.366;8.530;2022-12-07T05:20:44;3.90;99.90
5802;DHT22;2927;49.366;8.530;2022-12-07T05:23:10;3.80;99.90
5802;DHT22;2927;49.366;8.530;2022-12-07T05:25:35;3.80;99.90
5802;DHT22;2927;49.366;8.530;2022-12-07T05:28:01;3.80;99.90
5802;DHT22;2927;49.366;8.530;2022-12-07T05:30:27;3.80;99.90
5802;DHT22;2927;49.366;8.530;2022-12-07T05:32:53;3.80;99.90
5802;DHT22;2927;49.366;8.530;2022-12-07T05:35:19;3.80;99.90
5802;DHT22;2927;49.366;8.530;2022-12-07T05:37:47;3.80;99.90
5802;DHT22;2927;49.366;8.530;2022-12-07T05:40:14;3.70;99.90
5802;DHT22;2927;49.366;8.530;2022-12-07T05:42:40;3.80;99.90
5802;DHT22;2927;49.366;8.530;2022-12-07T05:45:07;3.80;99.90
5802;DHT22;2927;49.366;8.530;2022-12-07T05:47:33;3.80;99.90
5802;DHT22;2927;49.366;8.530;2022-12-07T05:49:58;3.80;99.90
5802;DHT22;2927;49.366;8.530;2022-12-07T05:52:24;3.80;99.90
5802;DHT22;2927;49.366;8.530;2022-12-07T05:54:49;3.80;99.90
5802;DHT22;2927;49.366;8.530;2022-12-07T05:57:15;3.80;99.90
5802;DHT22;2927;49.366;8.530;2022-12-07T05:59:41;3.80;99.90
5802;DHT22;2927;49.366;8.530;2022-12-07T06:02:13;3.90;99.90
5802;DHT22;2927;49.366;8.530;2022-12-07T06:04:41;3.90;99.90
5802;DHT22;2927;49.366;8.530;2022-12-07T06:07:08;3.90;99.90
5802;DHT22;2927;49.366;8.530;2022-12-07T06:09:34;3.90;99.90
5802;DHT22;2927;49.366;8.530;2022-12-07T06:12:01;3.90;99.90
5802;DHT22;2927;49.366;8.530;2022-12-07T06:14:45;3.80;99.90
5802;DHT22;2927;49.366;8.530;2022-12-07T06:17:11;3.90;99.90
5802;DHT22;2927;49.366;8.530;2022-12-07T06:19:37;3.90;99.90
5802;DHT22;2927;49.366;8.530;2022-12-07T06:22:03;3.90;99.90
5802;DHT22;2927;49.366;8.530;2022-12-07T06:24:30;3.90;99.90
5802;DHT22;2927;49.366;8.530;2022-12-07T06:26:55;3.80;99.90
5802;DHT22;2927;49.366;8.530;2022-12-07T06:29:21;3.80;99.90
5802;DHT22;2927;49.366;8.530;2022-12-07T06:31:47;3.80;99.90
5802;DHT22;2927;49.366;8.530;2022-12-07T06:34:15;3.90;99.90
5802;DHT22;2927;49.366;8.530;2022-12-07T06:36:41;3.90;99.90
5802;DHT22;2927;49.366;8.530;2022-12-07T06:39:08;3.90;99.90
5802;DHT22;2927;49.366;8.530;2022-12-07T06:41:35;4.00;99.90
5802;DHT22;2927;49.366;8.530;2022-12-07T06:44:02;3.90;99.90
5802;DHT22;2927;49.366;8.530;2022-12-07T06:46:27;3.90;99.90
5802;DHT22;2927;49.366;8.530;2022-12-07T06:48:53;3.90;99.90
5802;DHT22;2927;49.366;8.530;2022-12-07T06:51:18;3.90;99.90
5802;DHT22;2927;49.366;8.530;2022-12-07T06:53:44;3.90;99.90
5802;DHT22;2927;49.366;8.530;2022-12-07T06:56:09;3.90;99.90
5802;DHT22;2927;49.366;8.530;2022-12-07T06:58:35;3.90;99.90
5802;DHT22;2927;49.366;8.530;2022-12-07T07:01:01;3.90;99.90
5802;DHT22;2927;49.366;8.530;2022-12-07T07:03:26;3.90;99.90
5802;DHT22;2927;49.366;8.530;2022-12-07T07:05:52;4.00;99.90
5802;DHT22;2927;49.366;8.530;2022-12-07T07:08:17;4.00;99.90
5802;DHT22;2927;49.366;8.530;2022-12-07T07:10:43;4.00;99.90
5802;DHT22;2927;49.366;8.530;2022-12-07T07:13:08;4.10;99.90
5802;DHT22;2927;49.366;8.530;2022-12-07T07:15:34;4.10;99.90
5802;DHT22;2927;49.366;8.530;2022-12-07T07:18:02;4.10;99.90
5802;DHT22;2927;49.366;8.530;2022-12-07T07:20:29;4.10;99.90
5802;DHT22;2927;49.366;8.530;2022-12-07T07:22:55;4.10;99.90
5802;DHT22;2927;49.366;8.530;2022-12-07T07:25:21;4.20;99.90
5802;DHT22;2927;49.366;8.530;2022-12-07T07:27:50;4.20;99.90
5802;DHT22;2927;49.366;8.530;2022-12-07T07:30:15;4.20;99.90
5802;DHT22;2927;49.366;8.530;2022-12-07T07:32:41;4.20;99.90
5802;DHT22;2927;49.366;8.530;2022-12-07T07:35:06;4.20;99.90
5802;DHT22;2927;49.366;8.530;2022-12-07T07:37:32;4.30;99.90
5802;DHT22;2927;49.366;8.530;2022-12-07T07:39:57;4.30;99.90
5802;DHT22;2927;49.366;8.530;2022-12-07T07:42:23;4.30;99.90
5802;DHT22;2927;49.366;8.530;2022-12-07T07:44:48;4.20;99.90
5802;DHT22;2927;49.366;8.530;2022-12-07T07:47:14;4.20;99.90
5802;DHT22;2927;49.366;8.530;2022-12-07T07:49:39;4.20;99.90
5802;DHT22;2927;49.366;8.530;2022-12-07T07:52:05;4.20;99.90
5802;DHT22;2927;49.366;8.530;2022-12-07T07:54:31;4.20;99.90
5802;DHT22;2927;49.366;8.530;2022-12-07T07:56:57;4.20;99.90
5802;DHT22;2927;49.366;8.530;2022-12-07T07:59:22;4.20;99.90
5802;DHT22;2927;49.366;8.530;2022-12-07T08:01:48;4.30;99.90
5802;DHT22;2927;49.366;8.530;2022-12-07T08:04:13;4.30;99.90
5802;DHT22;2927;49.366;8.530;2022-12-07T08:06:39;4.30;99.90
5802;DHT22;2927;49.366;8.530;2022-12-07T08:09:04;4.30;99.90
5802;DHT22;2927;49.366;8.530;2022-12-07T08:11:31;4.30;99.90
5802;DHT22;2927;49.366;8.530;2022-12-07T08:13:57;4.30;99.90
5802;DHT22;2927;49.366;8.530;2022-12-07T08:16:22;4.30;99.90
5802;DHT22;2927;49.366;8.530;2022-12-07T08:18:48;4.30;99.90
5802;DHT22;2927;49.366;8.530;2022-12-07T08:21:15;4.40;99.90
5802;DHT22;2927;49.366;8.530;2022-12-07T08:23:41;4.40;99.90
5802;DHT22;2927;49.366;8.530;2022-12-07T08:26:10;4.40;99.90
5802;DHT22;2927;49.366;8.530;2022-12-07T08:28:37;4.40;99.90
5802;DHT22;2927;49.366;8.530;2022-12-07T08:31:08;4.40;99.90
5802;DHT22;2927;49.366;8.530;2022-12-07T08:33:34;4.50;99.90
5802;DHT22;2927;49.366;8.530;2022-12-07T08:36:08;4.40;99.90
5802;DHT22;2927;49.366;8.530;2022-12-07T08:38:35;4.40;99.90
5802;DHT22;2927;49.366;8.530;2022-12-07T08:41:01;4.40;99.90
5802;DHT22;2927;49.366;8.530;2022-12-07T08:43:27;4.40;99.90
5802;DHT22;2927;49.366;8.530;2022-12-07T08:48:37;4.40;99.90
5802;DHT22;2927;49.366;8.530;2022-12-07T08:51:04;4.40;99.90
5802;DHT22;2927;49.366;8.530;2022-12-07T08:53:30;4.50;99.90
5802;DHT22;2927;49.366;8.530;2022-12-07T08:55:56;4.60;99.90
5802;DHT22;2927;49.366;8.530;2022-12-07T08:58:22;4.50;99.90
5802;DHT22;2927;49.366;8.530;2022-12-07T09:00:48;4.50;99.90
5802;DHT22;2927;49.366;8.530;2022-12-07T09:03:13;4.50;99.90
5802;DHT22;2927;49.366;8.530;2022-12-07T09:05:39;4.50;99.90
5802;DHT22;2927;49.366;8.530;2022-12-07T09:08:05;4.50;99.90
5802;DHT22;2927;49.366;8.530;2022-12-07T09:10:31;4.60;99.90
5802;DHT22;2927;49.366;8.530;2022-12-07T09:12:57;4.60;99.90
5802;DHT22;2927;49.366;8.530;2022-12-07T09:15:29;4.70;99.90
5802;DHT22;2927;49.366;8.530;2022-12-07T09:17:54;4.70;99.90
5802;DHT22;2927;49.366;8.530;2022-12-07T09:20:20;4.80;99.90
5802;DHT22;2927;49.366;8.530;2022-12-07T09:22:46;4.70;99.90
5802;DHT22;2927;49.366;8.530;2022-12-07T09:25:11;4.70;99.90
5802;DHT22;2927;49.366;8.530;2022-12-07T09:27:37;4.80;99.90
5802;DHT22;2927;49.366;8.530;2022-12-07T09:30:03;4.90;99.90
5802;DHT22;2927;49.366;8.530;2022-12-07T09:32:29;5.00;99.90
5802;DHT22;2927;49.366;8.530;2022-12-07T09:34:55;5.00;99.90
5802;DHT22;2927;49.366;8.530;2022-12-07T09:37:20;5.00;99.90
5802;DHT22;2927;49.366;8.530;2022-12-07T09:39:46;4.90;99.90
5802;DHT22;2927;49.366;8.530;2022-12-07T09:42:28;5.00;99.90
5802;DHT22;2927;49.366;8.530;2022-12-07T09:44:55;5.10;99.90
5802;DHT22;2927;49.366;8.530;2022-12-07T09:47:21;5.10;99.90
5802;DHT22;2927;49.366;8.530;2022-12-07T09:49:47;5.20;99.90
5802;DHT22;2927;49.366;8.530;2022-12-07T09:54:42;5.20;99.90
5802;DHT22;2927;49.366;8.530;2022-12-07T09:57:11;5.20;99.90
5802;DHT22;2927;49.366;8.530;2022-12-07T09:59:38;5.20;99.90
5802;DHT22;2927;49.366;8.530;2022-12-07T10:04:57;5.10;99.90
5802;DHT22;2927;49.366;8.530;2022-12-07T10:07:23;5.10;99.90
5802;DHT22;2927;49.366;8.530;2022-12-07T10:09:49;5.10;99.90
5802;DHT22;2927;49.366;8.530;2022-12-07T10:12:14;5.10;99.90
5802;DHT22;2927;49.366;8.530;2022-12-07T10:14:57;5.10;99.90
5802;DHT22;2927;49.366;8.530;2022-12-07T10:17:40;5.20;99.90
5802;DHT22;2927;49.366;8.530;2022-12-07T10:20:26;5.30;99.90
5802;DHT22;2927;49.366;8.530;2022-12-07T10:23:04;5.30;99.90
5802;DHT22;2927;49.366;8.530;2022-12-07T10:25:36;5.30;99.90
5802;DHT22;2927;49.366;8.530;2022-12-07T10:28:16;5.30;99.90
5802;DHT22;2927;49.366;8.530;2022-12-07T10:33:37;5.30;99.90
5802;DHT22;2927;49.366;8.530;2022-12-07T10:38:50;5.50;99.90
5802;DHT22;2927;49.366;8.530;2022-12-07T10:41:16;5.50;99.90
5802;DHT22;2927;49.366;8.530;2022-12-07T10:43:50;5.40;99.90
5802;DHT22;2927;49.366;8.530;2022-12-07T10:49:28;5.40;99.90
5802;DHT22;2927;49.366;8.530;2022-12-07T10:52:32;5.50;99.90
5802;DHT22;2927;49.366;8.530;2022-12-07T10:58:24;5.80;99.90
5802;DHT22;2927;49.366;8.530;2022-12-07T11:17:38;6.40;26.10
5802;DHT22;2927;49.366;8.530;2022-12-07T11:28:27;6.40;68.50
5802;DHT22;2927;49.366;8.530;2022-12-07T11:31:17;6.40;39.30
5802;DHT22;2927;49.366;8.530;2022-12-07T11:36:43;6.30;47.40
5802;DHT22;2927;49.366;8.530;2022-12-07T11:41:50;6.30;23.10
5802;DHT22;2927;49.366;8.530;2022-12-07T11:47:22;6.10;1.00
5802;DHT22;2927;49.366;8.530;2022-12-07T11:49:56;6.10;1.00
5802;DHT22;2927;49.366;8.530;2022-12-07T11:55:21;6.20;1.00
5802;DHT22;2927;49.366;8.530;2022-12-07T11:57:56;6.30;1.00
5802;DHT22;2927;49.366;8.530;2022-12-07T12:00:25;6.20;1.00
5802;DHT22;2927;49.366;8.530;2022-12-07T12:03:01;6.30;1.00
5802;DHT22;2927;49.366;8.530;2022-12-07T12:05:28;6.30;1.00
5802;DHT22;2927;49.366;8.530;2022-12-07T12:08:18;6.20;1.00
5802;DHT22;2927;49.366;8.530;2022-12-07T12:11:00;6.40;1.00
5802;DHT22;2927;49.366;8.530;2022-12-07T12:16:52;6.60;99.90
5802;DHT22;2927;49.366;8.530;2022-12-07T12:22:09;6.70;1.00
5802;DHT22;2927;49.366;8.530;2022-12-07T12:24:37;6.60;1.00
5802;DHT22;2927;49.366;8.530;2022-12-07T12:27:06;6.60;1.00
5802;DHT22;2927;49.366;8.530;2022-12-07T12:29:37;6.60;1.00
5802;DHT22;2927;49.366;8.530;2022-12-07T12:34:41;6.50;1.00
5802;DHT22;2927;49.366;8.530;2022-12-07T12:42:47;6.90;1.00
5802;DHT22;2927;49.366;8.530;2022-12-07T12:50:24;7.00;1.00
5802;DHT22;2927;49.366;8.530;2022-12-07T12:58:39;6.70;1.00
5802;DHT22;2927;49.366;8.530;2022-12-07T13:01:41;6.80;17.40
5802;DHT22;2927;49.366;8.530;2022-12-07T13:04:30;6.70;49.80
5802;DHT22;2927;49.366;8.530;2022-12-07T13:06:59;6.50;99.90
5802;DHT22;2927;49.366;8.530;2022-12-07T13:09:31;6.60;99.90
5802;DHT22;2927;49.366;8.530;2022-12-07T13:12:10;6.60;99.90
5802;DHT22;2927;49.366;8.530;2022-12-07T13:17:11;6.70;4.60
5802;DHT22;2927;49.366;8.530;2022-12-07T13:19:53;6.70;99.90
5802;DHT22;2927;49.366;8.530;2022-12-07T13:25:23;6.50;99.90
5802;DHT22;2927;49.366;8.530;2022-12-07T13:28:04;6.40;99.90
5802;DHT22;2927;49.366;8.530;2022-12-07T13:30:43;6.40;99.90
5802;DHT22;2927;49.366;8.530;2022-12-07T13:33:12;6.50;99.90
5802;DHT22;2927;49.366;8.530;2022-12-07T13:35:38;6.50;99.90
5802;DHT22;2927;49.366;8.530;2022-12-07T13:38:21;6.40;99.90
5802;DHT22;2927;49.366;8.530;2022-12-07T13:41:17;6.50;1.00
5802;DHT22;2927;49.366;8.530;2022-12-07T13:43:49;6.40;1.00
5802;DHT22;2927;49.366;8.530;2022-12-07T13:46:14;6.30;1.00
5802;DHT22;2927;49.366;8.530;2022-12-07T13:48:50;6.30;1.00
5802;DHT22;2927;49.366;8.530;2022-12-07T13:51:23;6.30;1.00
5802;DHT22;2927;49.366;8.530;2022-12-07T13:53:52;6.40;1.00
5802;DHT22;2927;49.366;8.530;2022-12-07T13:56:18;6.40;1.00
5802;DHT22;2927;49.366;8.530;2022-12-07T13:58:45;6.30;1.00
5802;DHT22;2927;49.366;8.530;2022-12-07T14:01:11;6.30;1.00
5802;DHT22;2927;49.366;8.530;2022-12-07T14:03:38;6.30;1.00
5802;DHT22;2927;49.366;8.530;2022-12-07T14:06:18;6.30;1.00
5802;DHT22;2927;49.366;8.530;2022-12-07T14:08:45;6.40;1.00
5802;DHT22;2927;49.366;8.530;2022-12-07T14:11:29;6.50;1.00
5802;DHT22;2927;49.366;8.530;2022-12-07T14:14:00;6.50;1.00
5802;DHT22;2927;49.366;8.530;2022-12-07T14:16:28;6.50;1.00
5802;DHT22;2927;49.366;8.530;2022-12-07T14:18:56;6.50;1.00
5802;DHT22;2927;49.366;8.530;2022-12-07T14:21:25;6.50;1.00
5802;DHT22;2927;49.366;8.530;2022-12-07T14:26:39;6.30;1.00
5802;DHT22;2927;49.366;8.530;2022-12-07T14:31:50;6.20;1.00
5802;DHT22;2927;49.366;8.530;2022-12-07T14:34:15;6.20;1.00
5802;DHT22;2927;49.366;8.530;2022-12-07T14:36:41;6.20;1.00
5802;DHT22;2927;49.366;8.530;2022-12-07T14:39:07;6.20;1.00
5802;DHT22;2927;49.366;8.530;2022-12-07T14:41:32;6.20;1.00
5802;DHT22;2927;49.366;8.530;2022-12-07T14:44:18;6.20;1.00
5802;DHT22;2927;49.366;8.530;2022-12-07T14:46:44;6.10;1.00
5802;DHT22;2927;49.366;8.530;2022-12-07T14:49:10;6.10;1.00
5802;DHT22;2927;49.366;8.530;2022-12-07T14:51:38;6.10;1.00
5802;DHT22;2927;49.366;8.530;2022-12-07T14:54:06;6.20;1.00
5802;DHT22;2927;49.366;8.530;2022-12-07T14:56:32;6.20;1.00
5802;DHT22;2927;49.366;8.530;2022-12-07T14:58:58;6.10;1.00
5802;DHT22;2927;49.366;8.530;2022-12-07T15:01:23;6.10;1.00
5802;DHT22;2927;49.366;8.530;2022-12-07T15:03:49;6.00;1.00
5802;DHT22;2927;49.366;8.530;2022-12-07T15:06:16;6.00;1.00
5802;DHT22;2927;49.366;8.530;2022-12-07T15:08:42;6.00;1.00
5802;DHT22;2927;49.366;8.530;2022-12-07T15:11:19;5.90;1.00
5802;DHT22;2927;49.366;8.530;2022-12-07T15:13:44;5.90;1.00
5802;DHT22;2927;49.366;8.530;2022-12-07T15:16:29;5.80;1.00
5802;DHT22;2927;49.366;8.530;2022-12-07T15:18:54;5.80;1.00
5802;DHT22;2927;49.366;8.530;2022-12-07T15:21:20;5.70;1.00
5802;DHT22;2927;49.366;8.530;2022-12-07T15:23:46;5.70;1.00
5802;DHT22;2927;49.366;8.530;2022-12-07T15:26:12;5.70;1.00
5802;DHT22;2927;49.366;8.530;2022-12-07T15:28:39;5.70;1.00
5802;DHT22;2927;49.366;8.530;2022-12-07T15:31:11;5.70;1.00
5802;DHT22;2927;49.366;8.530;2022-12-07T15:33:36;5.70;1.00
5802;DHT22;2927;49.366;8.530;2022-12-07T15:36:02;5.70;1.00
5802;DHT22;2927;49.366;8.530;2022-12-07T15:38:28;5.60;1.00
5802;DHT22;2927;49.366;8.530;2022-12-07T15:40:55;5.70;1.00
5802;DHT22;2927;49.366;8.530;2022-12-07T15:43:21;5.60;1.00
5802;DHT22;2927;49.366;8.530;2022-12-07T15:46:05;5.60;1.00
5802;DHT22;2927;49.366;8.530;2022-12-07T15:48:30;5.60;1.00
5802;DHT22;2927;49.366;8.530;2022-12-07T15:51:07;5.50;1.00
5802;DHT22;2927;49.366;8.530;2022-12-07T15:53:33;5.50;1.00
5802;DHT22;2927;49.366;8.530;2022-12-07T15:55:59;5.50;1.00
5802;DHT22;2927;49.366;8.530;2022-12-07T15:58:25;5.50;1.00
5802;DHT22;2927;49.366;8.530;2022-12-07T16:00:51;5.50;1.00
5802;DHT22;2927;49.366;8.530;2022-12-07T16:03:16;5.50;1.00
5802;DHT22;2927;49.366;8.530;2022-12-07T16:05:48;5.50;1.00
5802;DHT22;2927;49.366;8.530;2022-12-07T16:08:14;5.50;1.00
5802;DHT22;2927;49.366;8.530;2022-12-07T16:10:39;5.50;1.00
5802;DHT22;2927;49.366;8.530;2022-12-07T16:13:09;5.50;1.00
5802;DHT22;2927;49.366;8.530;2022-12-07T16:15:38;5.50;1.00
5802;DHT22;2927;49.366;8.530;2022-12-07T16:18:04;5.50;1.00
5802;DHT22;2927;49.366;8.530;2022-12-07T16:20:29;5.50;1.00
5802;DHT22;2927;49.366;8.530;2022-12-07T16:22:55;5.50;1.00
5802;DHT22;2927;49.366;8.530;2022-12-07T16:25:20;5.50;1.00
5802;DHT22;2927;49.366;8.530;2022-12-07T16:27:46;5.50;1.00
5802;DHT22;2927;49.366;8.530;2022-12-07T16:30:13;5.50;1.00
5802;DHT22;2927;49.366;8.530;2022-12-07T16:32:39;5.50;1.00
5802;DHT22;2927;49.366;8.530;2022-12-07T16:35:04;5.50;1.00
5802;DHT22;2927;49.366;8.530;2022-12-07T16:37:30;5.50;1.00
5802;DHT22;2927;49.366;8.530;2022-12-07T16:39:55;5.50;1.00
5802;DHT22;2927;49.366;8.530;2022-12-07T16:42:21;5.40;1.00
5802;DHT22;2927;49.366;8.530;2022-12-07T16:44:47;5.40;1.00
5802;DHT22;2927;49.366;8.530;2022-12-07T16:47:12;5.40;1.00
5802;DHT22;2927;49.366;8.530;2022-12-07T16:49:38;5.40;1.00
5802;DHT22;2927;49.366;8.530;2022-12-07T16:52:03;5.30;1.00
5802;DHT22;2927;49.366;8.530;2022-12-07T16:54:29;5.40;1.00
5802;DHT22;2927;49.366;8.530;2022-12-07T16:56:57;5.30;1.00
5802;DHT22;2927;49.366;8.530;2022-12-07T16:59:23;5.30;1.00
5802;DHT22;2927;49.366;8.530;2022-12-07T17:01:48;5.20;1.00
5802;DHT22;2927;49.366;8.530;2022-12-07T17:04:14;5.20;1.00
5802;DHT22;2927;49.366;8.530;2022-12-07T17:06:40;5.20;1.00
5802;DHT22;2927;49.366;8.530;2022-12-07T17:09:05;5.20;1.00
5802;DHT22;2927;49.366;8.530;2022-12-07T17:11:34;5.10;10.70
5802;DHT22;2927;49.366;8.530;2022-12-07T17:14:00;5.10;11.00
5802;DHT22;2927;49.366;8.530;2022-12-07T17:16:45;5.20;3.80
5802;DHT22;2927;49.366;8.530;2022-12-07T17:19:13;5.10;11.10
5802;DHT22;2927;49.366;8.530;2022-12-07T17:21:39;5.10;20.30
5802;DHT22;2927;49.366;8.530;2022-12-07T17:24:07;5.10;19.30
5802;DHT22;2927;49.366;8.530;2022-12-07T17:26:33;5.10;25.60
5802;DHT22;2927;49.366;8.530;2022-12-07T17:28:59;5.00;41.30
5802;DHT22;2927;49.366;8.530;2022-12-07T17:31:25;5.00;59.00
5802;DHT22;2927;49.366;8.530;2022-12-07T17:33:51;5.10;66.80
5802;DHT22;2927;49.366;8.530;2022-12-07T17:36:19;5.00;92.30
5802;DHT22;2927;49.366;8.530;2022-12-07T17:38:45;5.00;99.90
5802;DHT22;2927;49.366;8.530;2022-12-07T17:41:17;5.00;99.90
5802;DHT22;2927;49.366;8.530;2022-12-07T17:44:03;5.00;99.90
5802;DHT22;2927;49.366;8.530;2022-12-07T17:46:29;5.00;99.90
5802;DHT22;2927;49.366;8.530;2022-12-07T17:48:55;5.00;99.90
5802;DHT22;2927;49.366;8.530;2022-12-07T17:51:21;5.00;99.90
5802;DHT22;2927;49.366;8.530;2022-12-07T17:54:05;5.00;99.90
5802;DHT22;2927;49.366;8.530;2022-12-07T17:56:31;5.00;99.90
5802;DHT22;2927;49.366;8.530;2022-12-07T17:58:57;5.00;99.90
5802;DHT22;2927;49.366;8.530;2022-12-07T18:01:22;5.00;99.90
5802;DHT22;2927;49.366;8.530;2022-12-07T18:03:48;4.90;99.90
5802;DHT22;2927;49.366;8.530;2022-12-07T18:06:13;4.90;99.90
5802;DHT22;2927;49.366;8.530;2022-12-07T18:08:39;4.90;99.90
5802;DHT22;2927;49.366;8.530;2022-12-07T18:11:05;4.90;99.90
5802;DHT22;2927;49.366;8.530;2022-12-07T18:13:33;4.80;99.90
5802;DHT22;2927;49.366;8.530;2022-12-07T18:16:03;4.90;99.90
5802;DHT22;2927;49.366;8.530;2022-12-07T18:18:29;4.90;99.90
5802;DHT22;2927;49.366;8.530;2022-12-07T18:20:54;4.90;99.90
5802;DHT22;2927;49.366;8.530;2022-12-07T18:23:20;4.90;99.90
5802;DHT22;2927;49.366;8.530;2022-12-07T18:25:49;4.80;99.90
5802;DHT22;2927;49.366;8.530;2022-12-07T18:28:15;4.80;99.90